Time;durP1;ratioP1;P1;durP2;ratioP2;P2;SDS_P1;SDS_P2;PMS_P1;PMS_P2;Temp;Humidity;BMP_temperature;BMP_pressure;BME280_temperature;BME280_humidity;BME280_pressure;Samples;Min_cycle;Max_cycle;Signal;HPM_P1;HPM_P2
2022/11/20 15:40:02;;;;;;;1999.90;999.90;;;6.10;99.90;;;;;;5131543;27;20367;-81
2022/11/20 15:42:28;;;;;;;1999.90;999.90;;;6.30;99.90;;;;;;5134965;27;20032;-80
2022/11/20 15:44:54;;;;;;;1999.90;999.90;;;6.30;99.90;;;;;;5136725;27;20043;-80
2022/11/20 15:47:27;;;;;;;1999.90;999.90;;;6.20;99.90;;;;;;5133991;27;20055;-79
2022/11/20 15:49:53;;;;;;;1999.90;999.90;;;6.20;99.90;;;;;;5133173;27;20032;-79
2022/11/20 15:52:19;;;;;;;1999.90;999.90;;;6.30;99.90;;;;;;5137484;22;20056;-80
2022/11/20 15:54:44;;;;;;;1999.90;999.90;;;6.30;99.90;;;;;;5056693;28;20064;-79
2022/11/20 15:57:10;;;;;;;1999.90;999.90;;;6.20;99.90;;;;;;5051620;28;20029;-81
2022/11/20 15:59:39;;;;;;;1999.90;999.90;;;6.20;99.90;;;;;;5050279;28;20088;-80
2022/11/20 16:02:12;;;;;;;1999.90;999.90;;;6.10;99.90;;;;;;5050413;28;20030;-78
2022/11/20 16:04:38;;;;;;;1999.90;999.90;;;6.10;99.90;;;;;;5050536;28;20094;-78
2022/11/20 16:07:04;;;;;;;1999.90;999.90;;;6.00;99.90;;;;;;5051467;28;20040;-77
2022/11/20 16:09:29;;;;;;;1999.90;999.90;;;6.00;99.90;;;;;;5051167;28;20399;-77
2022/11/20 16:11:55;;;;;;;1999.90;999.90;;;5.90;99.90;;;;;;5050845;28;20060;-77
2022/11/20 16:17:04;;;;;;;1999.90;999.90;;;5.90;99.90;;;;;;5051400;28;20093;-76
2022/11/20 16:19:30;;;;;;;1999.90;999.90;;;5.80;99.90;;;;;;5049719;28;20081;-77
2022/11/20 16:21:58;;;;;;;1999.90;999.90;;;5.90;99.90;;;;;;5049015;28;20034;-76
2022/11/20 16:24:24;;;;;;;1999.90;999.90;;;5.90;99.90;;;;;;5049967;28;20073;-79
2022/11/20 16:26:49;;;;;;;1999.90;999.90;;;5.80;99.90;;;;;;5050425;28;20029;-80
2022/11/20 16:29:15;;;;;;;1999.90;999.90;;;5.80;99.90;;;;;;5053778;28;20038;-79
2022/11/20 16:31:40;;;;;;;1999.90;999.90;;;5.80;99.90;;;;;;5054658;28;20034;-80
2022/11/20 16:34:07;;;;;;;1999.90;999.90;;;5.80;99.90;;;;;;5051776;28;20177;-79
2022/11/20 16:36:33;;;;;;;1999.90;999.90;;;5.80;99.90;;;;;;5049772;28;20041;-79
2022/11/20 16:39:01;;;;;;;1999.90;999.90;;;5.80;99.90;;;;;;5049739;28;20041;-81
2022/11/20 16:41:30;;;;;;;1999.90;999.90;;;5.80;99.90;;;;;;5050225;28;20037;-79
2022/11/20 16:43:58;;;;;;;1999.90;999.90;;;5.90;99.90;;;;;;5050121;28;20112;-81
2022/11/20 16:46:31;;;;;;;1999.90;999.90;;;5.90;99.90;;;;;;5050002;28;20314;-79
2022/11/20 16:49:05;;;;;;;1999.90;999.90;;;6.00;99.90;;;;;;5050326;28;20034;-80
2022/11/20 16:51:33;;;;;;;1999.90;999.90;;;6.10;99.90;;;;;;5035701;28;20030;-80
2022/11/20 16:54:02;;;;;;;1999.90;999.90;;;6.10;99.90;;;;;;5038922;28;20037;-78
2022/11/20 16:56:27;;;;;;;1999.90;999.90;;;6.10;99.90;;;;;;5037329;28;20038;-79
2022/11/20 16:58:55;;;;;;;1999.90;999.90;;;6.10;99.90;;;;;;5039224;28;20046;-80
2022/11/20 17:01:22;;;;;;;1999.90;999.90;;;6.50;99.90;;;;;;5036559;28;20030;-79
2022/11/20 17:03:57;;;;;;;1999.90;999.90;;;6.20;99.90;;;;;;5037328;28;20041;-77
2022/11/20 17:06:25;;;;;;;1999.90;999.90;;;6.10;99.90;;;;;;5036826;28;20093;-77
2022/11/20 17:08:53;;;;;;;1999.90;999.90;;;6.10;99.90;;;;;;5035346;28;20038;-76
2022/11/20 17:11:19;;;;;;;1999.90;999.90;;;6.10;99.90;;;;;;5036356;28;20137;-76
2022/11/20 17:13:45;;;;;;;1999.90;999.90;;;6.20;99.90;;;;;;5037004;28;20864;-76
2022/11/20 17:16:14;;;;;;;1999.90;999.90;;;6.20;99.90;;;;;;5036648;28;20034;-76
2022/11/20 17:18:40;;;;;;;1999.90;999.90;;;6.20;99.90;;;;;;5039184;28;20069;-81
2022/11/20 17:21:06;;;;;;;1999.90;999.90;;;6.20;99.90;;;;;;5036755;28;20085;-75
2022/11/20 17:23:38;;;;;;;1999.90;999.90;;;6.30;99.90;;;;;;5036491;28;20037;-75
2022/11/20 17:26:09;;;;;;;1999.90;999.90;;;6.30;99.90;;;;;;5036812;28;20530;-74
2022/11/20 17:28:36;;;;;;;1999.90;999.90;;;6.30;99.90;;;;;;5036869;28;20513;-74
2022/11/20 17:31:04;;;;;;;1999.90;999.90;;;6.40;99.90;;;;;;5035285;28;20105;-75
2022/11/20 17:33:29;;;;;;;1999.90;999.90;;;6.30;99.90;;;;;;5036287;28;20549;-74
2022/11/20 17:35:55;;;;;;;1999.90;999.90;;;6.40;99.90;;;;;;5035998;28;20044;-74
2022/11/20 17:38:21;;;;;;;1999.90;999.90;;;6.40;99.90;;;;;;5036338;28;20044;-78
2022/11/20 17:40:47;;;;;;;1999.90;999.90;;;6.50;99.90;;;;;;5039294;28;20030;-81
2022/11/20 17:43:13;;;;;;;1999.90;999.90;;;6.50;99.90;;;;;;5040622;28;20034;-83
2022/11/20 17:45:38;;;;;;;1999.90;999.90;;;6.50;99.90;;;;;;5039329;28;20113;-81
2022/11/20 17:48:04;;;;;;;1999.90;999.90;;;6.50;99.90;;;;;;5041996;28;20042;-82
2022/11/20 17:50:30;;;;;;;1999.90;999.90;;;6.40;99.90;;;;;;5040269;28;20050;-82
2022/11/20 17:52:55;;;;;;;1999.90;999.90;;;6.50;99.90;;;;;;5037373;28;20048;-80
2022/11/20 17:55:21;;;;;;;1999.90;999.90;;;6.40;99.90;;;;;;5038442;28;20042;-74
2022/11/20 17:57:54;;;;;;;1999.90;999.90;;;6.40;99.90;;;;;;5036615;28;20034;-75
2022/11/20 18:00:21;;;;;;;1999.90;999.90;;;6.40;99.90;;;;;;5036449;28;20041;-76
2022/11/20 18:02:46;;;;;;;1999.90;999.90;;;6.40;99.90;;;;;;5035510;28;20029;-76
2022/11/20 18:05:12;;;;;;;1999.90;999.90;;;6.40;99.90;;;;;;5036061;28;20042;-75
2022/11/20 18:07:38;;;;;;;1999.90;999.90;;;6.50;99.90;;;;;;5036504;28;20026;-76
2022/11/20 18:10:04;;;;;;;1999.90;999.90;;;6.50;99.90;;;;;;5035971;28;20036;-75
2022/11/20 18:12:30;;;;;;;1999.90;999.90;;;6.40;99.90;;;;;;5035199;28;20034;-75
2022/11/20 18:14:56;;;;;;;1999.90;999.90;;;6.40;99.90;;;;;;5035762;28;20034;-77
2022/11/20 18:17:21;;;;;;;1999.90;999.90;;;6.30;99.90;;;;;;5035714;28;20502;-75
2022/11/20 18:19:49;;;;;;;1999.90;999.90;;;6.40;99.90;;;;;;5036275;28;20038;-76
2022/11/20 18:22:17;;;;;;;1999.90;999.90;;;6.40;99.90;;;;;;5036185;28;20033;-75
2022/11/20 18:24:42;;;;;;;1999.90;999.90;;;6.40;99.90;;;;;;5035778;28;20042;-75
2022/11/20 18:27:18;;;;;;;1999.90;999.90;;;6.40;99.90;;;;;;5035916;28;20030;-75
2022/11/20 18:29:45;;;;;;;1999.90;999.90;;;6.30;99.90;;;;;;5035503;28;20037;-75
2022/11/20 18:32:11;;;;;;;1999.90;999.90;;;6.40;99.90;;;;;;5035337;28;20030;-75
2022/11/20 18:34:36;;;;;;;1999.90;999.90;;;6.40;99.90;;;;;;5033959;28;20457;-75
2022/11/20 18:37:02;;;;;;;1999.90;999.90;;;6.40;99.90;;;;;;5035743;28;20142;-75
2022/11/20 18:39:28;;;;;;;1999.90;999.90;;;6.40;99.90;;;;;;5035182;28;20041;-75
2022/11/20 18:44:50;;;;;;;1999.90;999.90;;;6.40;99.90;;;;;;5035350;28;20117;-75
2022/11/20 18:47:21;;;;;;;1999.90;999.90;;;6.40;99.90;;;;;;5035417;28;20034;-75
2022/11/20 18:49:51;;;;;;;1999.90;999.90;;;6.40;99.90;;;;;;5034056;28;20160;-75
2022/11/20 18:52:18;;;;;;;1999.90;999.90;;;6.40;99.90;;;;;;5034751;28;20030;-75
2022/11/20 18:54:43;;;;;;;1999.90;999.90;;;6.30;99.90;;;;;;5035232;28;20034;-76
2022/11/20 18:57:13;;;;;;;1999.90;999.90;;;6.30;99.90;;;;;;5035499;28;20042;-76
2022/11/20 18:59:38;;;;;;;1999.90;999.90;;;6.30;99.90;;;;;;5034678;28;20168;-75
2022/11/20 19:02:04;;;;;;;1999.90;999.90;;;6.20;99.90;;;;;;5033591;28;20176;-81
2022/11/20 19:04:29;;;;;;;1999.90;999.90;;;6.20;99.90;;;;;;5036260;28;20045;-77
2022/11/20 19:06:55;;;;;;;1999.90;999.90;;;6.10;99.90;;;;;;5036771;28;20069;-77
2022/11/20 19:09:22;;;;;;;1999.90;999.90;;;6.10;99.90;;;;;;5036059;28;20476;-77
2022/11/20 19:11:47;;;;;;;1999.90;999.90;;;6.00;99.90;;;;;;5035146;28;20037;-77
2022/11/20 19:14:13;;;;;;;1999.90;999.90;;;6.00;99.90;;;;;;5031669;28;20034;-78
2022/11/20 19:16:39;;;;;;;1999.90;999.90;;;6.00;99.90;;;;;;5017430;28;20030;-77
2022/11/20 19:19:05;;;;;;;1999.90;999.90;;;5.90;99.90;;;;;;5016624;28;20574;-78
2022/11/20 19:21:31;;;;;;;1999.90;999.90;;;5.80;99.90;;;;;;5017790;28;20022;-78
2022/11/20 19:23:59;;;;;;;1999.90;999.90;;;5.80;99.90;;;;;;5015841;28;20061;-77
2022/11/20 19:26:25;;;;;;;1999.90;999.90;;;5.60;99.90;;;;;;5015936;28;20030;-77
2022/11/20 19:28:51;;;;;;;1999.90;999.90;;;5.60;99.90;;;;;;5017431;28;20035;-78
2022/11/20 19:31:19;;;;;;;1999.90;999.90;;;5.50;99.90;;;;;;5016261;28;20035;-77
2022/11/20 19:33:45;;;;;;;1999.90;999.90;;;5.50;99.90;;;;;;5032713;28;20042;-78
2022/11/20 19:36:17;;;;;;;1999.90;999.90;;;5.50;99.90;;;;;;5016080;28;20041;-77
2022/11/20 19:38:46;;;;;;;1999.90;999.90;;;5.40;99.90;;;;;;5016826;28;20153;-76
2022/11/20 19:41:13;;;;;;;1999.90;999.90;;;5.40;99.90;;;;;;5014835;28;20117;-77
2022/11/20 19:43:40;;;;;;;1999.90;999.90;;;5.40;99.90;;;;;;5015618;28;20407;-77
2022/11/20 19:46:06;;;;;;;1999.90;999.90;;;5.40;99.90;;;;;;5014769;28;20065;-77
2022/11/20 19:48:33;;;;;;;1999.90;999.90;;;5.40;99.90;;;;;;5016221;28;20069;-77
2022/11/20 19:51:08;;;;;;;1999.90;999.90;;;5.40;99.90;;;;;;5016298;28;20500;-77
2022/11/20 19:53:33;;;;;;;1999.90;999.90;;;5.40;99.90;;;;;;5015895;28;20801;-77
2022/11/20 19:55:59;;;;;;;1999.90;999.90;;;5.30;99.90;;;;;;5017055;28;20034;-77
2022/11/20 19:58:26;;;;;;;1999.90;999.90;;;5.30;99.90;;;;;;5015115;28;20049;-77
2022/11/20 20:00:52;;;;;;;1999.90;999.90;;;5.30;99.90;;;;;;5014909;28;20173;-77
2022/11/20 20:03:18;;;;;;;1999.90;999.90;;;5.30;99.90;;;;;;5014912;28;20518;-77
2022/11/20 20:05:44;;;;;;;1999.90;999.90;;;5.30;99.90;;;;;;5016505;28;20041;-77
2022/11/20 20:08:09;;;;;;;1999.90;999.90;;;5.30;99.90;;;;;;5015148;28;20041;-77
2022/11/20 20:10:35;;;;;;;1999.90;999.90;;;5.30;99.90;;;;;;5016101;28;20041;-77
2022/11/20 20:13:00;;;;;;;1999.90;999.90;;;5.30;99.90;;;;;;5017477;28;20042;-78
2022/11/20 20:15:26;;;;;;;1999.90;999.90;;;5.30;99.90;;;;;;5027036;28;20125;-77
2022/11/20 20:17:52;;;;;;;1999.90;999.90;;;5.20;99.90;;;;;;5015289;28;20034;-77
2022/11/20 20:20:18;;;;;;;1999.90;999.90;;;5.30;99.90;;;;;;5015173;28;20038;-77
2022/11/20 20:22:44;;;;;;;1999.90;999.90;;;5.30;99.90;;;;;;5014654;28;20110;-77
2022/11/20 20:25:10;;;;;;;1999.90;999.90;;;5.30;99.90;;;;;;5015949;28;20776;-77
2022/11/20 20:27:35;;;;;;;1999.90;999.90;;;5.30;99.90;;;;;;5017157;28;20045;-77
2022/11/20 20:30:06;;;;;;;1999.90;999.90;;;5.30;99.90;;;;;;5018602;28;20109;-77
2022/11/20 20:32:31;;;;;;;1999.90;999.90;;;5.40;99.90;;;;;;5017691;28;20065;-77
2022/11/20 20:34:57;;;;;;;1999.90;999.90;;;5.30;99.90;;;;;;5018293;28;20066;-77
2022/11/20 20:37:23;;;;;;;1999.90;999.90;;;5.40;99.90;;;;;;5018231;28;20105;-77
2022/11/20 20:39:49;;;;;;;1999.90;999.90;;;5.40;99.90;;;;;;5018390;28;20034;-77
2022/11/20 20:42:14;;;;;;;1999.90;999.90;;;5.40;99.90;;;;;;5018257;28;20035;-77
2022/11/20 20:47:30;;;;;;;1999.90;999.90;;;5.40;99.90;;;;;;5018541;28;20034;-77
2022/11/20 20:49:55;;;;;;;1999.90;999.90;;;5.40;99.90;;;;;;5018088;28;20113;-77
2022/11/20 20:52:21;;;;;;;1999.90;999.90;;;5.40;99.90;;;;;;5018007;28;20129;-77
2022/11/20 20:54:46;;;;;;;1999.90;999.90;;;5.50;99.90;;;;;;5017001;28;20045;-77
2022/11/20 20:57:12;;;;;;;1999.90;999.90;;;5.50;99.90;;;;;;5018557;28;20035;-77
2022/11/20 20:59:37;;;;;;;1999.90;999.90;;;5.50;99.90;;;;;;5017485;28;20043;-77
2022/11/20 21:04:41;;;;;;;1999.90;999.90;;;5.50;99.90;;;;;;5079541;22;20109;-77
2022/11/20 21:10:40;;;;;;;;;;;;;;;;;;;;;
2022/11/20 21:13:12;;;;;;;1999.90;999.90;;;5.50;99.90;;;;;;5051238;22;42843;-77
2022/11/20 21:15:41;;;;;;;1999.90;999.90;;;5.50;99.90;;;;;;5037252;28;20038;-77
2022/11/20 21:18:10;;;;;;;1999.90;999.90;;;5.50;99.90;;;;;;5026015;28;20043;-76
2022/11/20 21:23:22;;;;;;;1999.90;999.90;;;5.60;99.90;;;;;;5037572;28;20065;-77
2022/11/20 21:25:48;;;;;;;1999.90;999.90;;;5.50;99.90;;;;;;5035975;28;20109;-77
2022/11/20 21:28:13;;;;;;;1999.90;999.90;;;5.60;99.90;;;;;;5037396;28;20105;-76
2022/11/20 21:30:39;;;;;;;1999.90;999.90;;;5.60;99.90;;;;;;5033654;28;20092;-77
2022/11/20 21:33:04;;;;;;;1999.90;999.90;;;5.60;99.90;;;;;;5025797;28;20060;-77
2022/11/20 21:35:33;;;;;;;1999.90;999.90;;;5.60;99.90;;;;;;5024923;28;20132;-77
2022/11/20 21:37:58;;;;;;;1999.90;999.90;;;5.60;99.90;;;;;;5025158;28;20125;-76
2022/11/20 21:40:24;;;;;;;1999.90;999.90;;;5.60;99.90;;;;;;5036647;28;20419;-77
2022/11/20 21:42:51;;;;;;;1999.90;999.90;;;5.70;99.90;;;;;;5026407;28;20034;-77
2022/11/20 21:45:22;;;;;;;1999.90;999.90;;;5.70;99.90;;;;;;5024080;28;20121;-76
2022/11/20 21:47:49;;;;;;;1999.90;999.90;;;5.70;99.90;;;;;;5022499;28;20056;-77
2022/11/20 21:50:15;;;;;;;1999.90;999.90;;;5.70;99.90;;;;;;5036672;28;20030;-77
2022/11/20 21:52:40;;;;;;;1999.90;999.90;;;5.70;99.90;;;;;;5046657;22;20054;-80
2022/11/20 21:55:06;;;;;;;1999.90;999.90;;;5.50;99.90;;;;;;5035677;28;20490;-79
2022/11/20 21:57:33;;;;;;;1999.90;999.90;;;5.60;99.90;;;;;;5044292;28;20037;-79
2022/11/20 21:59:59;;;;;;;1999.90;999.90;;;5.60;99.90;;;;;;5039956;28;20034;-79
2022/11/20 22:02:25;;;;;;;1999.90;999.90;;;5.60;99.90;;;;;;5038617;28;20041;-79
2022/11/20 22:04:50;;;;;;;1999.90;999.90;;;5.70;99.90;;;;;;5043934;28;20042;-78
2022/11/20 22:07:16;;;;;;;1999.90;999.90;;;5.70;99.90;;;;;;5044424;28;20535;-79
2022/11/20 22:09:42;;;;;;;1999.90;999.90;;;5.70;99.90;;;;;;5043596;28;20041;-80
2022/11/20 22:12:07;;;;;;;1999.90;999.90;;;5.70;99.90;;;;;;5044352;28;20034;-79
2022/11/20 22:14:33;;;;;;;1999.90;999.90;;;5.70;99.90;;;;;;5043074;28;20125;-80
2022/11/20 22:16:58;;;;;;;1999.90;999.90;;;5.70;99.90;;;;;;5042915;28;20034;-79
2022/11/20 22:19:24;;;;;;;1999.90;999.90;;;5.80;99.90;;;;;;5041849;28;20046;-78
2022/11/20 22:21:50;;;;;;;1999.90;999.90;;;5.80;99.90;;;;;;5041331;28;20036;-78
2022/11/20 22:24:17;;;;;;;1999.90;999.90;;;5.90;99.90;;;;;;5042401;28;20037;-79
2022/11/20 22:26:43;;;;;;;1999.90;999.90;;;6.00;99.90;;;;;;5044565;28;20036;-79
2022/11/20 22:29:18;;;;;;;1999.90;999.90;;;6.00;99.90;;;;;;5041812;28;20064;-79
2022/11/20 22:31:43;;;;;;;1999.90;999.90;;;6.10;99.90;;;;;;5039754;28;20548;-79
2022/11/20 22:34:11;;;;;;;1999.90;999.90;;;6.10;99.90;;;;;;5038754;28;20060;-79
2022/11/20 22:36:37;;;;;;;1999.90;999.90;;;6.10;99.90;;;;;;5041339;28;20122;-79
2022/11/20 22:39:04;;;;;;;1999.90;999.90;;;6.00;99.90;;;;;;5041406;28;20050;-78
2022/11/20 22:41:30;;;;;;;1999.90;999.90;;;6.20;99.90;;;;;;5036857;28;20037;-78
2022/11/20 22:44:06;;;;;;;1999.90;999.90;;;6.10;99.90;;;;;;5034151;28;20038;-78
2022/11/20 22:46:34;;;;;;;1999.90;999.90;;;6.20;99.90;;;;;;5037318;28;20026;-79
2022/11/20 22:49:03;;;;;;;1999.90;999.90;;;6.20;99.90;;;;;;5036261;28;20053;-78
2022/11/20 22:51:31;;;;;;;1999.90;999.90;;;6.20;99.90;;;;;;5053549;28;20049;-78
2022/11/20 22:53:57;;;;;;;1999.90;999.90;;;6.20;99.90;;;;;;5036084;28;20574;-78
2022/11/20 22:56:23;;;;;;;1999.90;999.90;;;6.20;99.90;;;;;;5035258;28;20033;-77
2022/11/20 22:58:50;;;;;;;1999.90;999.90;;;6.20;99.90;;;;;;5033508;28;20553;-79
